Últimos artigos:
Acender um LED com a tensão da rede eléctrica
Programação do Yaesu FT-60 para os EasySats
AO-91 (RadFxSat Fox-1B) está no Ar!
CT7AFR DIY CW-Keyer
Shutdown button for the Raspberry Pi
Simple C code to dump I2C device memory
Últimas fotos:
Últimos METARs:
LPAZ 242230Z 36005KT CAVOK 13/10 Q1032=
LPFR 242230Z VRB03KT CAVOK 13/09 Q1025=
LPHR 242100Z VRB02KT 9999 FEW015 14/11 Q10...
LPLA 242200Z /////KT 9999 FEW015 15/14 Q10...
LPMA 242230Z 04014KT 9999 FEW012 18/14 Q10...
LPPD 242230Z 01006KT 340V040 9999 FEW009 1...
LPPR 242230Z 00000KT 9999 FEW015 BKN020 09...
LPPS 242230Z 08010KT 030V110 9999 FEW010 1...
LPPT 242230Z 32011KT 9999 FEW009 12/09 Q10...
Últimos QSOs:
2019/11/10-11:46 40m EA5INS (JON)
2019/11/10-11:43 40m G0FVH (DAVID.)
2019/11/10-11:38 40m EA4GU (MANUEL)
2019/11/10-11:38 40m EA7KAU (JUSTO)
2019/11/10-11:37 40m EA2CPG (PEDRO)
2019/11/10-11:36 40m CS7ALA (FELISBERTO)
  UTC
Rpi-6 CPU Temp: 454642.0 °C (251812Z)
IN51oq 2308Z /////KT //// 19/13 Q1027=
94031